sensor_id;sensor_type;location;lat;lon;timestamp;temperature;humidity
40059;SHT31;25763;49.972;8.568;2023-06-10T00:00:52;20.25;61.32
40059;SHT31;25763;49.972;8.568;2023-06-10T00:03:18;20.20;61.47
40059;SHT31;25763;49.972;8.568;2023-06-10T00:05:43;20.15;61.79
40059;SHT31;25763;49.972;8.568;2023-06-10T00:08:09;20.14;61.54
40059;SHT31;25763;49.972;8.568;2023-06-10T00:10:37;20.12;61.87
40059;SHT31;25763;49.972;8.568;2023-06-10T00:13:04;20.08;62.14
40059;SHT31;25763;49.972;8.568;2023-06-10T00:15:30;20.04;62.08
40059;SHT31;25763;49.972;8.568;2023-06-10T00:17:55;19.98;62.65
40059;SHT31;25763;49.972;8.568;2023-06-10T00:20:21;19.94;62.83
40059;SHT31;25763;49.972;8.568;2023-06-10T00:22:50;19.90;63.68
40059;SHT31;25763;49.972;8.568;2023-06-10T00:25:16;19.81;63.34
40059;SHT31;25763;49.972;8.568;2023-06-10T00:27:42;19.69;63.63
40059;SHT31;25763;49.972;8.568;2023-06-10T00:30:08;19.70;63.86
40059;SHT31;25763;49.972;8.568;2023-06-10T00:32:34;19.61;64.72
40059;SHT31;25763;49.972;8.568;2023-06-10T00:34:59;19.48;63.50
40059;SHT31;25763;49.972;8.568;2023-06-10T00:37:25;19.35;63.53
40059;SHT31;25763;49.972;8.568;2023-06-10T00:39:50;19.32;63.77
40059;SHT31;25763;49.972;8.568;2023-06-10T00:42:15;19.32;64.21
40059;SHT31;25763;49.972;8.568;2023-06-10T00:44:41;19.21;63.89
40059;SHT31;25763;49.972;8.568;2023-06-10T00:47:07;19.11;64.25
40059;SHT31;25763;49.972;8.568;2023-06-10T00:49:33;19.06;64.45
40059;SHT31;25763;49.972;8.568;2023-06-10T00:51:58;19.00;64.54
40059;SHT31;25763;49.972;8.568;2023-06-10T00:54:24;19.00;64.39
40059;SHT31;25763;49.972;8.568;2023-06-10T00:56:51;19.04;64.38
40059;SHT31;25763;49.972;8.568;2023-06-10T00:59:17;19.11;65.28
40059;SHT31;25763;49.972;8.568;2023-06-10T01:01:42;19.08;65.30
40059;SHT31;25763;49.972;8.568;2023-06-10T01:04:08;19.07;64.99
40059;SHT31;25763;49.972;8.568;2023-06-10T01:09:45;18.93;65.05
40059;SHT31;25763;49.972;8.568;2023-06-10T01:12:37;18.80;65.28
40059;SHT31;25763;49.972;8.568;2023-06-10T01:15:05;18.73;65.33
40059;SHT31;25763;49.972;8.568;2023-06-10T01:17:30;18.69;65.35
40059;SHT31;25763;49.972;8.568;2023-06-10T01:19:57;18.76;65.41
40059;SHT31;25763;49.972;8.568;2023-06-10T01:22:27;18.79;65.97
40059;SHT31;25763;49.972;8.568;2023-06-10T01:25:02;18.77;65.54
40059;SHT31;25763;49.972;8.568;2023-06-10T01:27:32;18.69;65.67
40059;SHT31;25763;49.972;8.568;2023-06-10T01:30:13;18.55;65.89
40059;SHT31;25763;49.972;8.568;2023-06-10T01:32:46;18.45;66.39
40059;SHT31;25763;49.972;8.568;2023-06-10T01:35:13;18.44;66.17
40059;SHT31;25763;49.972;8.568;2023-06-10T01:37:41;18.45;66.32
40059;SHT31;25763;49.972;8.568;2023-06-10T01:40:08;18.43;66.57
40059;SHT31;25763;49.972;8.568;2023-06-10T01:42:34;18.24;67.24
40059;SHT31;25763;49.972;8.568;2023-06-10T01:45:00;18.09;67.79
40059;SHT31;25763;49.972;8.568;2023-06-10T01:47:25;17.96;68.46
40059;SHT31;25763;49.972;8.568;2023-06-10T01:49:51;17.91;68.63
40059;SHT31;25763;49.972;8.568;2023-06-10T01:52:16;17.84;69.07
40059;SHT31;25763;49.972;8.568;2023-06-10T01:54:42;17.91;68.56
40059;SHT31;25763;49.972;8.568;2023-06-10T01:57:07;17.92;68.75
40059;SHT31;25763;49.972;8.568;2023-06-10T01:59:32;17.75;69.51
40059;SHT31;25763;49.972;8.568;2023-06-10T02:01:58;17.64;70.05
40059;SHT31;25763;49.972;8.568;2023-06-10T02:04:23;17.47;70.44
40059;SHT31;25763;49.972;8.568;2023-06-10T02:06:48;17.47;70.72
40059;SHT31;25763;49.972;8.568;2023-06-10T02:09:14;17.41;70.77
40059;SHT31;25763;49.972;8.568;2023-06-10T02:11:39;17.43;70.89
40059;SHT31;25763;49.972;8.568;2023-06-10T02:14:05;17.33;71.55
40059;SHT31;25763;49.972;8.568;2023-06-10T02:16:30;17.32;71.42
40059;SHT31;25763;49.972;8.568;2023-06-10T02:18:56;17.37;70.95
40059;SHT31;25763;49.972;8.568;2023-06-10T02:21:22;17.37;70.57
40059;SHT31;25763;49.972;8.568;2023-06-10T02:23:47;17.49;70.63
40059;SHT31;25763;49.972;8.568;2023-06-10T02:26:12;17.57;70.69
40059;SHT31;25763;49.972;8.568;2023-06-10T02:28:37;17.63;70.58
40059;SHT31;25763;49.972;8.568;2023-06-10T02:31:03;17.65;70.43
40059;SHT31;25763;49.972;8.568;2023-06-10T02:33:28;17.65;70.27
40059;SHT31;25763;49.972;8.568;2023-06-10T02:35:55;17.65;70.25
40059;SHT31;25763;49.972;8.568;2023-06-10T02:38:20;17.67;70.08
40059;SHT31;25763;49.972;8.568;2023-06-10T02:40:46;17.60;70.07
40059;SHT31;25763;49.972;8.568;2023-06-10T02:43:11;17.55;70.19
40059;SHT31;25763;49.972;8.568;2023-06-10T02:45:36;17.63;70.33
40059;SHT31;25763;49.972;8.568;2023-06-10T02:48:02;17.64;70.60
40059;SHT31;25763;49.972;8.568;2023-06-10T02:50:27;17.60;70.83
40059;SHT31;25763;49.972;8.568;2023-06-10T02:52:52;17.60;70.64
40059;SHT31;25763;49.972;8.568;2023-06-10T02:55:18;17.58;70.71
40059;SHT31;25763;49.972;8.568;2023-06-10T02:57:43;17.60;70.43
40059;SHT31;25763;49.972;8.568;2023-06-10T03:00:09;17.57;70.75
40059;SHT31;25763;49.972;8.568;2023-06-10T03:02:37;17.54;70.71
40059;SHT31;25763;49.972;8.568;2023-06-10T03:05:04;17.55;70.57
40059;SHT31;25763;49.972;8.568;2023-06-10T03:07:30;17.55;70.23
40059;SHT31;25763;49.972;8.568;2023-06-10T03:09:56;17.57;70.13
40059;SHT31;25763;49.972;8.568;2023-06-10T03:12:21;17.51;70.36
40059;SHT31;25763;49.972;8.568;2023-06-10T03:14:47;17.47;70.60
40059;SHT31;25763;49.972;8.568;2023-06-10T03:17:12;17.43;70.60
40059;SHT31;25763;49.972;8.568;2023-06-10T03:19:37;17.39;70.71
40059;SHT31;25763;49.972;8.568;2023-06-10T03:22:11;17.39;70.56
40059;SHT31;25763;49.972;8.568;2023-06-10T03:24:37;17.34;70.84
40059;SHT31;25763;49.972;8.568;2023-06-10T03:27:12;17.20;71.43
40059;SHT31;25763;49.972;8.568;2023-06-10T03:29:39;17.09;71.68
40059;SHT31;25763;49.972;8.568;2023-06-10T03:32:05;16.97;72.02
40059;SHT31;25763;49.972;8.568;2023-06-10T03:34:31;16.99;71.98
40059;SHT31;25763;49.972;8.568;2023-06-10T03:36:57;17.06;71.78
40059;SHT31;25763;49.972;8.568;2023-06-10T03:39:22;17.09;71.70
40059;SHT31;25763;49.972;8.568;2023-06-10T03:41:49;16.99;72.09
40059;SHT31;25763;49.972;8.568;2023-06-10T03:44:14;16.90;72.45
40059;SHT31;25763;49.972;8.568;2023-06-10T03:46:40;16.73;73.06
40059;SHT31;25763;49.972;8.568;2023-06-10T03:49:06;16.65;73.13
40059;SHT31;25763;49.972;8.568;2023-06-10T03:51:31;16.57;73.57
40059;SHT31;25763;49.972;8.568;2023-06-10T03:53:56;16.60;73.52
40059;SHT31;25763;49.972;8.568;2023-06-10T03:56:21;16.61;73.57
40059;SHT31;25763;49.972;8.568;2023-06-10T03:58:47;16.71;73.34
40059;SHT31;25763;49.972;8.568;2023-06-10T04:01:12;16.78;73.28
40059;SHT31;25763;49.972;8.568;2023-06-10T04:03:43;16.91;72.66
40059;SHT31;25763;49.972;8.568;2023-06-10T04:06:08;16.94;72.72
40059;SHT31;25763;49.972;8.568;2023-06-10T04:08:34;16.88;72.79
40059;SHT31;25763;49.972;8.568;2023-06-10T04:11:01;16.91;72.61
40059;SHT31;25763;49.972;8.568;2023-06-10T04:13:26;16.87;72.51
40059;SHT31;25763;49.972;8.568;2023-06-10T04:15:52;16.97;72.20
40059;SHT31;25763;49.972;8.568;2023-06-10T04:18:19;17.06;71.95
40059;SHT31;25763;49.972;8.568;2023-06-10T04:20:45;17.15;71.62
40059;SHT31;25763;49.972;8.568;2023-06-10T04:23:10;17.25;71.81
40059;SHT31;25763;49.972;8.568;2023-06-10T04:25:35;17.37;71.70
40059;SHT31;25763;49.972;8.568;2023-06-10T04:28:01;17.49;71.22
40059;SHT31;25763;49.972;8.568;2023-06-10T04:30:26;17.55;71.20
40059;SHT31;25763;49.972;8.568;2023-06-10T04:32:51;17.60;70.99
40059;SHT31;25763;49.972;8.568;2023-06-10T04:35:17;17.63;70.13
40059;SHT31;25763;49.972;8.568;2023-06-10T04:37:42;17.63;69.96
40059;SHT31;25763;49.972;8.568;2023-06-10T04:40:08;17.78;71.14
40059;SHT31;25763;49.972;8.568;2023-06-10T04:42:34;17.77;69.89
40059;SHT31;25763;49.972;8.568;2023-06-10T04:45:00;17.85;70.30
40059;SHT31;25763;49.972;8.568;2023-06-10T04:47:26;17.91;70.14
40059;SHT31;25763;49.972;8.568;2023-06-10T04:49:51;17.95;69.18
40059;SHT31;25763;49.972;8.568;2023-06-10T04:52:17;18.05;69.00
40059;SHT31;25763;49.972;8.568;2023-06-10T04:54:43;18.12;69.01
40059;SHT31;25763;49.972;8.568;2023-06-10T04:57:08;18.13;68.59
40059;SHT31;25763;49.972;8.568;2023-06-10T04:59:34;18.21;68.69
40059;SHT31;25763;49.972;8.568;2023-06-10T05:02:03;18.33;68.77
40059;SHT31;25763;49.972;8.568;2023-06-10T05:04:28;18.44;69.40
40059;SHT31;25763;49.972;8.568;2023-06-10T05:06:54;18.57;69.82
40059;SHT31;25763;49.972;8.568;2023-06-10T05:09:20;18.62;68.43
40059;SHT31;25763;49.972;8.568;2023-06-10T05:11:46;18.68;68.12
40059;SHT31;25763;49.972;8.568;2023-06-10T05:14:11;18.77;67.91
40059;SHT31;25763;49.972;8.568;2023-06-10T05:16:37;18.86;68.08
40059;SHT31;25763;49.972;8.568;2023-06-10T05:19:03;18.94;67.60
40059;SHT31;25763;49.972;8.568;2023-06-10T05:21:29;19.17;67.96
40059;SHT31;25763;49.972;8.568;2023-06-10T05:23:54;19.27;65.80
40059;SHT31;25763;49.972;8.568;2023-06-10T05:26:20;19.35;64.29
40059;SHT31;25763;49.972;8.568;2023-06-10T05:28:45;19.55;64.54
40059;SHT31;25763;49.972;8.568;2023-06-10T05:31:10;19.66;64.62
40059;SHT31;25763;49.972;8.568;2023-06-10T05:33:36;19.79;65.15
40059;SHT31;25763;49.972;8.568;2023-06-10T05:36:01;19.87;64.76
40059;SHT31;25763;49.972;8.568;2023-06-10T05:38:27;19.91;63.30
40059;SHT31;25763;49.972;8.568;2023-06-10T05:40:52;19.98;63.97
40059;SHT31;25763;49.972;8.568;2023-06-10T05:43:18;19.98;64.60
40059;SHT31;25763;49.972;8.568;2023-06-10T05:45:43;20.05;63.66
40059;SHT31;25763;49.972;8.568;2023-06-10T05:48:08;20.01;63.07
40059;SHT31;25763;49.972;8.568;2023-06-10T05:50:34;20.20;62.79
40059;SHT31;25763;49.972;8.568;2023-06-10T05:53:04;20.47;62.35
40059;SHT31;25763;49.972;8.568;2023-06-10T05:55:29;20.63;60.61
40059;SHT31;25763;49.972;8.568;2023-06-10T05:58:01;20.81;62.28
40059;SHT31;25763;49.972;8.568;2023-06-10T06:00:26;20.81;59.91
40059;SHT31;25763;49.972;8.568;2023-06-10T06:02:52;20.88;60.14
40059;SHT31;25763;49.972;8.568;2023-06-10T06:05:18;21.01;59.52
40059;SHT31;25763;49.972;8.568;2023-06-10T06:07:43;21.02;59.39
40059;SHT31;25763;49.972;8.568;2023-06-10T06:10:09;21.18;58.56
40059;SHT31;25763;49.972;8.568;2023-06-10T06:12:34;21.43;58.89
40059;SHT31;25763;49.972;8.568;2023-06-10T06:15:00;21.39;58.28
40059;SHT31;25763;49.972;8.568;2023-06-10T06:17:25;21.35;57.92
40059;SHT31;25763;49.972;8.568;2023-06-10T06:19:50;21.70;57.52
40059;SHT31;25763;49.972;8.568;2023-06-10T06:22:17;21.65;56.44
40059;SHT31;25763;49.972;8.568;2023-06-10T06:24:46;21.68;57.14
40059;SHT31;25763;49.972;8.568;2023-06-10T06:27:12;21.75;57.03
40059;SHT31;25763;49.972;8.568;2023-06-10T06:29:37;21.89;56.76
40059;SHT31;25763;49.972;8.568;2023-06-10T06:32:03;22.04;56.08
40059;SHT31;25763;49.972;8.568;2023-06-10T06:34:28;22.30;57.14
40059;SHT31;25763;49.972;8.568;2023-06-10T06:36:54;22.26;55.90
40059;SHT31;25763;49.972;8.568;2023-06-10T06:39:19;22.32;55.98
40059;SHT31;25763;49.972;8.568;2023-06-10T06:41:44;22.13;54.73
40059;SHT31;25763;49.972;8.568;2023-06-10T06:44:10;22.27;55.15
40059;SHT31;25763;49.972;8.568;2023-06-10T06:46:35;22.45;54.75
40059;SHT31;25763;49.972;8.568;2023-06-10T06:49:00;22.45;53.91
40059;SHT31;25763;49.972;8.568;2023-06-10T06:51:26;22.61;53.63
40059;SHT31;25763;49.972;8.568;2023-06-10T06:53:51;22.69;54.45
40059;SHT31;25763;49.972;8.568;2023-06-10T06:56:19;23.00;55.54
40059;SHT31;25763;49.972;8.568;2023-06-10T06:58:46;23.16;53.00
40059;SHT31;25763;49.972;8.568;2023-06-10T07:01:11;23.02;52.31
40059;SHT31;25763;49.972;8.568;2023-06-10T07:03:37;23.15;52.60
40059;SHT31;25763;49.972;8.568;2023-06-10T07:06:02;23.16;52.64
40059;SHT31;25763;49.972;8.568;2023-06-10T07:08:28;23.04;52.33
40059;SHT31;25763;49.972;8.568;2023-06-10T07:10:54;23.27;52.28
40059;SHT31;25763;49.972;8.568;2023-06-10T07:13:19;23.35;53.21
40059;SHT31;25763;49.972;8.568;2023-06-10T07:15:45;23.58;52.49
40059;SHT31;25763;49.972;8.568;2023-06-10T07:18:10;23.66;51.67
40059;SHT31;25763;49.972;8.568;2023-06-10T07:20:36;23.78;52.98
40059;SHT31;25763;49.972;8.568;2023-06-10T07:23:01;23.92;52.53
40059;SHT31;25763;49.972;8.568;2023-06-10T07:25:26;24.17;52.94
40059;SHT31;25763;49.972;8.568;2023-06-10T07:27:52;23.85;51.38
40059;SHT31;25763;49.972;8.568;2023-06-10T07:30:17;23.92;51.87
40059;SHT31;25763;49.972;8.568;2023-06-10T07:32:43;23.96;51.65
40059;SHT31;25763;49.972;8.568;2023-06-10T07:35:10;24.17;52.13
40059;SHT31;25763;49.972;8.568;2023-06-10T07:37:38;24.59;52.42
40059;SHT31;25763;49.972;8.568;2023-06-10T07:40:04;24.86;52.10
40059;SHT31;25763;49.972;8.568;2023-06-10T07:42:31;25.02;52.08
40059;SHT31;25763;49.972;8.568;2023-06-10T07:44:57;25.14;51.68
40059;SHT31;25763;49.972;8.568;2023-06-10T07:47:22;24.97;48.40
40059;SHT31;25763;49.972;8.568;2023-06-10T07:49:48;25.12;51.41
40059;SHT31;25763;49.972;8.568;2023-06-10T07:52:13;24.72;49.26
40059;SHT31;25763;49.972;8.568;2023-06-10T07:54:38;25.06;49.29
40059;SHT31;25763;49.972;8.568;2023-06-10T07:57:04;25.00;49.49
40059;SHT31;25763;49.972;8.568;2023-06-10T07:59:29;25.17;51.46
40059;SHT31;25763;49.972;8.568;2023-06-10T08:01:55;25.10;48.52
40059;SHT31;25763;49.972;8.568;2023-06-10T08:04:20;25.31;51.14
40059;SHT31;25763;49.972;8.568;2023-06-10T08:06:45;25.32;49.17
40059;SHT31;25763;49.972;8.568;2023-06-10T08:09:11;25.21;48.15
40059;SHT31;25763;49.972;8.568;2023-06-10T08:11:36;24.94;49.67
40059;SHT31;25763;49.972;8.568;2023-06-10T08:14:01;25.06;49.20
40059;SHT31;25763;49.972;8.568;2023-06-10T08:16:27;25.49;48.68
40059;SHT31;25763;49.972;8.568;2023-06-10T08:18:52;25.17;48.66
40059;SHT31;25763;49.972;8.568;2023-06-10T08:21:18;25.39;48.36
40059;SHT31;25763;49.972;8.568;2023-06-10T08:23:43;25.49;49.05
40059;SHT31;25763;49.972;8.568;2023-06-10T08:26:09;25.36;48.17
40059;SHT31;25763;49.972;8.568;2023-06-10T08:28:34;25.62;48.39
40059;SHT31;25763;49.972;8.568;2023-06-10T08:31:00;25.65;47.12
40059;SHT31;25763;49.972;8.568;2023-06-10T08:33:26;25.81;47.22
40059;SHT31;25763;49.972;8.568;2023-06-10T08:35:51;25.62;47.48
40059;SHT31;25763;49.972;8.568;2023-06-10T08:38:16;25.59;47.77
40059;SHT31;25763;49.972;8.568;2023-06-10T08:40:42;26.11;48.01
40059;SHT31;25763;49.972;8.568;2023-06-10T08:43:14;26.24;47.67
40059;SHT31;25763;49.972;8.568;2023-06-10T08:45:42;26.29;48.45
40059;SHT31;25763;49.972;8.568;2023-06-10T08:48:10;26.25;47.76
40059;SHT31;25763;49.972;8.568;2023-06-10T08:50:37;26.38;46.59
40059;SHT31;25763;49.972;8.568;2023-06-10T08:53:06;26.76;47.37
40059;SHT31;25763;49.972;8.568;2023-06-10T08:55:35;26.92;48.71
40059;SHT31;25763;49.972;8.568;2023-06-10T08:58:02;26.91;47.04
40059;SHT31;25763;49.972;8.568;2023-06-10T09:00:28;26.88;46.08
40059;SHT31;25763;49.972;8.568;2023-06-10T09:02:55;26.61;46.25
40059;SHT31;25763;49.972;8.568;2023-06-10T09:05:21;26.88;47.15
40059;SHT31;25763;49.972;8.568;2023-06-10T09:07:47;27.18;46.93
40059;SHT31;25763;49.972;8.568;2023-06-10T09:10:13;27.24;46.51
40059;SHT31;25763;49.972;8.568;2023-06-10T09:12:38;27.23;45.64
40059;SHT31;25763;49.972;8.568;2023-06-10T09:15:05;27.16;45.92
40059;SHT31;25763;49.972;8.568;2023-06-10T09:17:31;27.43;47.54
40059;SHT31;25763;49.972;8.568;2023-06-10T09:19:57;27.57;45.94
40059;SHT31;25763;49.972;8.568;2023-06-10T09:22:23;27.34;45.10
40059;SHT31;25763;49.972;8.568;2023-06-10T09:24:49;27.05;45.34
40059;SHT31;25763;49.972;8.568;2023-06-10T09:27:14;27.30;46.35
40059;SHT31;25763;49.972;8.568;2023-06-10T09:29:58;27.08;44.91
40059;SHT31;25763;49.972;8.568;2023-06-10T09:32:24;27.42;45.71
40059;SHT31;25763;49.972;8.568;2023-06-10T09:34:50;27.75;44.12
40059;SHT31;25763;49.972;8.568;2023-06-10T09:37:22;27.77;46.03
40059;SHT31;25763;49.972;8.568;2023-06-10T09:40:04;27.63;44.17
40059;SHT31;25763;49.972;8.568;2023-06-10T09:42:34;27.60;44.71
40059;SHT31;25763;49.972;8.568;2023-06-10T09:45:02;27.99;43.82
40059;SHT31;25763;49.972;8.568;2023-06-10T09:47:27;27.84;44.20
40059;SHT31;25763;49.972;8.568;2023-06-10T09:49:53;27.98;44.19
40059;SHT31;25763;49.972;8.568;2023-06-10T09:52:22;28.09;44.16
40059;SHT31;25763;49.972;8.568;2023-06-10T09:54:49;27.75;43.03
40059;SHT31;25763;49.972;8.568;2023-06-10T09:57:16;27.88;43.04
40059;SHT31;25763;49.972;8.568;2023-06-10T09:59:41;28.06;42.57
40059;SHT31;25763;49.972;8.568;2023-06-10T10:02:13;28.04;43.27
40059;SHT31;25763;49.972;8.568;2023-06-10T10:04:39;28.48;44.25
40059;SHT31;25763;49.972;8.568;2023-06-10T10:07:04;28.68;42.13
40059;SHT31;25763;49.972;8.568;2023-06-10T10:09:33;28.64;42.99
40059;SHT31;25763;49.972;8.568;2023-06-10T10:11:59;28.47;43.36
40059;SHT31;25763;49.972;8.568;2023-06-10T10:14:28;28.65;43.71
40059;SHT31;25763;49.972;8.568;2023-06-10T10:16:57;28.58;41.78
40059;SHT31;25763;49.972;8.568;2023-06-10T10:19:28;28.45;42.95
40059;SHT31;25763;49.972;8.568;2023-06-10T10:21:59;28.44;43.97
40059;SHT31;25763;49.972;8.568;2023-06-10T10:24:38;28.71;42.10
40059;SHT31;25763;49.972;8.568;2023-06-10T10:29:58;29.11;43.04
40059;SHT31;25763;49.972;8.568;2023-06-10T10:32:38;29.35;40.43
40059;SHT31;25763;49.972;8.568;2023-06-10T10:35:12;28.96;41.38
40059;SHT31;25763;49.972;8.568;2023-06-10T10:37:40;29.17;41.92
40059;SHT31;25763;49.972;8.568;2023-06-10T10:40:07;29.45;41.84
40059;SHT31;25763;49.972;8.568;2023-06-10T10:42:33;29.69;41.92
40059;SHT31;25763;49.972;8.568;2023-06-10T10:45:00;29.77;41.66
40059;SHT31;25763;49.972;8.568;2023-06-10T10:47:27;30.25;40.83
40059;SHT31;25763;49.972;8.568;2023-06-10T10:49:54;29.92;38.13
40059;SHT31;25763;49.972;8.568;2023-06-10T10:52:21;30.35;40.14
40059;SHT31;25763;49.972;8.568;2023-06-10T10:54:47;30.31;39.11
40059;SHT31;25763;49.972;8.568;2023-06-10T10:57:17;30.00;39.81
40059;SHT31;25763;49.972;8.568;2023-06-10T11:02:18;29.48;38.52
40059;SHT31;25763;49.972;8.568;2023-06-10T11:04:47;30.25;37.76
40059;SHT31;25763;49.972;8.568;2023-06-10T11:07:13;30.35;38.20
40059;SHT31;25763;49.972;8.568;2023-06-10T11:10:07;31.08;38.25
40059;SHT31;25763;49.972;8.568;2023-06-10T11:12:51;30.36;36.46
40059;SHT31;25763;49.972;8.568;2023-06-10T11:15:23;30.94;35.43
40059;SHT31;25763;49.972;8.568;2023-06-10T11:20:45;31.11;33.79
40059;SHT31;25763;49.972;8.568;2023-06-10T11:26:18;30.55;36.07
40059;SHT31;25763;49.972;8.568;2023-06-10T11:31:30;30.91;36.35
40059;SHT31;25763;49.972;8.568;2023-06-10T11:34:01;30.95;38.09
40059;SHT31;25763;49.972;8.568;2023-06-10T11:36:28;31.10;36.93
40059;SHT31;25763;49.972;8.568;2023-06-10T11:39:00;31.62;36.16
40059;SHT31;25763;49.972;8.568;2023-06-10T11:41:27;31.50;33.72
40059;SHT31;25763;49.972;8.568;2023-06-10T11:43:54;30.52;34.56
40059;SHT31;25763;49.972;8.568;2023-06-10T11:46:22;31.11;36.04
40059;SHT31;25763;49.972;8.568;2023-06-10T11:48:55;31.10;33.94
40059;SHT31;25763;49.972;8.568;2023-06-10T11:51:20;31.36;36.52
40059;SHT31;25763;49.972;8.568;2023-06-10T11:53:47;31.53;35.64
40059;SHT31;25763;49.972;8.568;2023-06-10T11:56:13;31.49;34.13
40059;SHT31;25763;49.972;8.568;2023-06-10T11:58:43;31.97;34.77
40059;SHT31;25763;49.972;8.568;2023-06-10T12:01:10;31.79;33.68
40059;SHT31;25763;49.972;8.568;2023-06-10T12:03:37;31.10;33.74
40059;SHT31;25763;49.972;8.568;2023-06-10T12:06:06;30.58;35.37
40059;SHT31;25763;49.972;8.568;2023-06-10T12:08:33;30.62;35.96
40059;SHT31;25763;49.972;8.568;2023-06-10T12:11:06;30.73;38.20
40059;SHT31;25763;49.972;8.568;2023-06-10T12:13:31;30.97;36.67
40059;SHT31;25763;49.972;8.568;2023-06-10T12:16:06;30.16;35.34
40059;SHT31;25763;49.972;8.568;2023-06-10T12:18:32;30.45;35.15
40059;SHT31;25763;49.972;8.568;2023-06-10T12:20:58;30.70;35.72
40059;SHT31;25763;49.972;8.568;2023-06-10T12:23:24;31.15;36.41
40059;SHT31;25763;49.972;8.568;2023-06-10T12:25:51;31.03;35.17
40059;SHT31;25763;49.972;8.568;2023-06-10T12:28:18;30.86;34.86
40059;SHT31;25763;49.972;8.568;2023-06-10T12:30:45;30.87;34.71
40059;SHT31;25763;49.972;8.568;2023-06-10T12:33:21;30.93;36.35
40059;SHT31;25763;49.972;8.568;2023-06-10T12:35:50;31.34;33.76
40059;SHT31;25763;49.972;8.568;2023-06-10T12:38:23;30.75;34.09
40059;SHT31;25763;49.972;8.568;2023-06-10T12:40:50;30.47;34.02
40059;SHT31;25763;49.972;8.568;2023-06-10T12:43:20;30.17;34.72
40059;SHT31;25763;49.972;8.568;2023-06-10T12:45:45;30.42;33.94
40059;SHT31;25763;49.972;8.568;2023-06-10T12:48:16;30.51;33.15
40059;SHT31;25763;49.972;8.568;2023-06-10T12:50:42;30.32;33.75
40059;SHT31;25763;49.972;8.568;2023-06-10T12:53:09;30.76;34.48
40059;SHT31;25763;49.972;8.568;2023-06-10T12:55:36;30.76;33.02
40059;SHT31;25763;49.972;8.568;2023-06-10T12:58:02;30.82;33.09
40059;SHT31;25763;49.972;8.568;2023-06-10T13:00:28;30.91;32.13
40059;SHT31;25763;49.972;8.568;2023-06-10T13:02:56;31.07;32.23
40059;SHT31;25763;49.972;8.568;2023-06-10T13:05:22;31.35;32.72
40059;SHT31;25763;49.972;8.568;2023-06-10T13:07:48;31.34;31.88
40059;SHT31;25763;49.972;8.568;2023-06-10T13:10:14;31.32;32.11
40059;SHT31;25763;49.972;8.568;2023-06-10T13:12:40;31.60;31.99
40059;SHT31;25763;49.972;8.568;2023-06-10T13:15:06;31.65;33.66
40059;SHT31;25763;49.972;8.568;2023-06-10T13:17:32;32.32;34.33
40059;SHT31;25763;49.972;8.568;2023-06-10T13:19:59;31.86;32.62
40059;SHT31;25763;49.972;8.568;2023-06-10T13:22:26;31.70;33.15
40059;SHT31;25763;49.972;8.568;2023-06-10T13:24:52;31.24;33.49
40059;SHT31;25763;49.972;8.568;2023-06-10T13:27:17;30.84;33.00
40059;SHT31;25763;49.972;8.568;2023-06-10T13:29:42;30.49;34.40
40059;SHT31;25763;49.972;8.568;2023-06-10T13:32:08;29.99;34.27
40059;SHT31;25763;49.972;8.568;2023-06-10T13:34:33;30.16;34.52
40059;SHT31;25763;49.972;8.568;2023-06-10T13:36:59;30.59;33.30
40059;SHT31;25763;49.972;8.568;2023-06-10T13:39:24;30.70;32.88
40059;SHT31;25763;49.972;8.568;2023-06-10T13:41:49;31.04;32.40
40059;SHT31;25763;49.972;8.568;2023-06-10T13:44:15;31.25;32.38
40059;SHT31;25763;49.972;8.568;2023-06-10T13:46:40;31.72;32.52
40059;SHT31;25763;49.972;8.568;2023-06-10T13:49:05;31.69;31.46
40059;SHT31;25763;49.972;8.568;2023-06-10T13:51:31;31.73;31.73
40059;SHT31;25763;49.972;8.568;2023-06-10T13:53:56;31.60;31.29
40059;SHT31;25763;49.972;8.568;2023-06-10T13:56:22;30.88;31.53
40059;SHT31;25763;49.972;8.568;2023-06-10T13:58:48;31.35;32.09
40059;SHT31;25763;49.972;8.568;2023-06-10T14:01:13;31.72;32.55
40059;SHT31;25763;49.972;8.568;2023-06-10T14:03:38;31.74;32.46
40059;SHT31;25763;49.972;8.568;2023-06-10T14:06:04;31.87;31.47
40059;SHT31;25763;49.972;8.568;2023-06-10T14:08:29;31.80;30.45
40059;SHT31;25763;49.972;8.568;2023-06-10T14:10:55;31.91;31.23
40059;SHT31;25763;49.972;8.568;2023-06-10T14:13:20;31.83;31.53
40059;SHT31;25763;49.972;8.568;2023-06-10T14:15:45;31.81;31.95
40059;SHT31;25763;49.972;8.568;2023-06-10T14:18:11;31.50;31.77
40059;SHT31;25763;49.972;8.568;2023-06-10T14:20:37;32.11;31.23
40059;SHT31;25763;49.972;8.568;2023-06-10T14:23:02;32.04;31.59
40059;SHT31;25763;49.972;8.568;2023-06-10T14:25:27;32.43;31.64
40059;SHT31;25763;49.972;8.568;2023-06-10T14:27:53;32.15;31.16
40059;SHT31;25763;49.972;8.568;2023-06-10T14:30:18;32.21;31.44
40059;SHT31;25763;49.972;8.568;2023-06-10T14:32:44;32.42;31.10
40059;SHT31;25763;49.972;8.568;2023-06-10T14:35:09;31.72;31.67
40059;SHT31;25763;49.972;8.568;2023-06-10T14:37:35;30.87;32.79
40059;SHT31;25763;49.972;8.568;2023-06-10T14:40:02;31.00;33.58
40059;SHT31;25763;49.972;8.568;2023-06-10T14:42:27;30.95;33.59
40059;SHT31;25763;49.972;8.568;2023-06-10T14:44:53;30.56;33.27
40059;SHT31;25763;49.972;8.568;2023-06-10T14:47:18;30.98;33.64
40059;SHT31;25763;49.972;8.568;2023-06-10T14:49:43;31.35;35.51
40059;SHT31;25763;49.972;8.568;2023-06-10T14:52:09;30.97;33.75
40059;SHT31;25763;49.972;8.568;2023-06-10T14:54:34;31.24;33.94
40059;SHT31;25763;49.972;8.568;2023-06-10T14:57:00;31.14;33.12
40059;SHT31;25763;49.972;8.568;2023-06-10T14:59:25;30.77;33.52
40059;SHT31;25763;49.972;8.568;2023-06-10T15:01:50;30.39;34.35
40059;SHT31;25763;49.972;8.568;2023-06-10T15:04:16;30.20;35.36
40059;SHT31;25763;49.972;8.568;2023-06-10T15:06:41;29.77;37.06
40059;SHT31;25763;49.972;8.568;2023-06-10T15:09:07;29.77;37.44
40059;SHT31;25763;49.972;8.568;2023-06-10T15:11:33;29.72;37.57
40059;SHT31;25763;49.972;8.568;2023-06-10T15:13:58;29.59;38.29
40059;SHT31;25763;49.972;8.568;2023-06-10T15:16:23;29.37;38.10
40059;SHT31;25763;49.972;8.568;2023-06-10T15:18:49;29.40;38.99
40059;SHT31;25763;49.972;8.568;2023-06-10T15:21:14;29.31;39.19
40059;SHT31;25763;49.972;8.568;2023-06-10T15:23:39;29.16;39.16
40059;SHT31;25763;49.972;8.568;2023-06-10T15:26:05;29.34;39.35
40059;SHT31;25763;49.972;8.568;2023-06-10T15:28:30;29.38;39.60
40059;SHT31;25763;49.972;8.568;2023-06-10T15:30:56;29.33;40.25
40059;SHT31;25763;49.972;8.568;2023-06-10T15:33:21;29.65;38.99
40059;SHT31;25763;49.972;8.568;2023-06-10T15:35:46;29.99;38.23
40059;SHT31;25763;49.972;8.568;2023-06-10T15:38:12;30.28;37.88
40059;SHT31;25763;49.972;8.568;2023-06-10T15:40:37;30.62;38.16
40059;SHT31;25763;49.972;8.568;2023-06-10T15:43:03;30.72;36.96